sensor_id;sensor_type;location;lat;lon;timestamp;pressure;altitude;pressure_sealevel;temperature;humidity
16580;BME280;8402;51.466;6.806;2022-08-19T00:01:40;100989.28;;;23.61;66.55
16580;BME280;8402;51.466;6.806;2022-08-19T00:04:11;100988.44;;;23.57;67.00
16580;BME280;8402;51.466;6.806;2022-08-19T00:06:41;100992.41;;;23.56;67.17
16580;BME280;8402;51.466;6.806;2022-08-19T00:09:12;100994.78;;;23.50;67.37
16580;BME280;8402;51.466;6.806;2022-08-19T00:11:41;100995.59;;;23.47;67.45
16580;BME280;8402;51.466;6.806;2022-08-19T00:14:13;100999.56;;;23.46;67.47
16580;BME280;8402;51.466;6.806;2022-08-19T00:16:42;100995.59;;;23.44;67.49
16580;BME280;8402;51.466;6.806;2022-08-19T00:19:11;101006.25;;;23.42;67.66
16580;BME280;8402;51.466;6.806;2022-08-19T00:21:39;101008.25;;;23.38;67.54
16580;BME280;8402;51.466;6.806;2022-08-19T00:24:07;101009.81;;;23.35;67.96
16580;BME280;8402;51.466;6.806;2022-08-19T00:26:37;100998.75;;;23.31;67.30
16580;BME280;8402;51.466;6.806;2022-08-19T00:29:06;100999.16;;;23.30;67.74
16580;BME280;8402;51.466;6.806;2022-08-19T00:31:36;101002.28;;;23.28;68.00
16580;BME280;8402;51.466;6.806;2022-08-19T00:34:04;100997.94;;;23.27;67.93
16580;BME280;8402;51.466;6.806;2022-08-19T00:36:32;100994.78;;;23.25;67.90
16580;BME280;8402;51.466;6.806;2022-08-19T00:39:00;100992.81;;;23.22;67.52
16580;BME280;8402;51.466;6.806;2022-08-19T00:41:29;100999.53;;;23.21;67.58
16580;BME280;8402;51.466;6.806;2022-08-19T00:43:59;100992.41;;;23.20;67.68
16580;BME280;8402;51.466;6.806;2022-08-19T00:46:28;100987.66;;;23.17;68.15
16580;BME280;8402;51.466;6.806;2022-08-19T00:49:02;100990.84;;;23.16;68.15
16580;BME280;8402;51.466;6.806;2022-08-19T00:51:33;100990.81;;;23.12;68.11
16580;BME280;8402;51.466;6.806;2022-08-19T00:54:02;100989.25;;;23.08;68.41
16580;BME280;8402;51.466;6.806;2022-08-19T00:56:30;100994.75;;;23.04;68.25
16580;BME280;8402;51.466;6.806;2022-08-19T00:58:59;100993.94;;;23.00;68.40
16580;BME280;8402;51.466;6.806;2022-08-19T01:01:28;100990.78;;;22.98;68.37
16580;BME280;8402;51.466;6.806;2022-08-19T01:03:56;100991.97;;;22.97;68.78
16580;BME280;8402;51.466;6.806;2022-08-19T01:06:26;100991.16;;;22.93;68.43
16580;BME280;8402;51.466;6.806;2022-08-19T01:08:54;100991.97;;;22.90;68.81
16580;BME280;8402;51.466;6.806;2022-08-19T01:11:22;100987.63;;;22.89;68.60
16580;BME280;8402;51.466;6.806;2022-08-19T01:13:50;100993.91;;;22.86;68.53
16580;BME280;8402;51.466;6.806;2022-08-19T01:16:22;100990.72;;;22.84;69.30
16580;BME280;8402;51.466;6.806;2022-08-19T01:18:51;100991.53;;;22.80;68.56
16580;BME280;8402;51.466;6.806;2022-08-19T01:21:24;100990.31;;;22.78;68.78
16580;BME280;8402;51.466;6.806;2022-08-19T01:23:56;100982.41;;;22.76;69.30
16580;BME280;8402;51.466;6.806;2022-08-19T01:26:24;100997.03;;;22.73;69.14
16580;BME280;8402;51.466;6.806;2022-08-19T01:28:55;100995.47;;;22.72;69.33
16580;BME280;8402;51.466;6.806;2022-08-19T01:31:28;101000.19;;;22.68;69.27
16580;BME280;8402;51.466;6.806;2022-08-19T01:33:59;100997.03;;;22.66;69.35
16580;BME280;8402;51.466;6.806;2022-08-19T01:36:32;100993.81;;;22.64;69.28
16580;BME280;8402;51.466;6.806;2022-08-19T01:39:07;100982.38;;;22.62;69.43
16580;BME280;8402;51.466;6.806;2022-08-19T01:41:36;100986.72;;;22.60;69.56
16580;BME280;8402;51.466;6.806;2022-08-19T01:44:06;100982.75;;;22.57;69.73
16580;BME280;8402;51.466;6.806;2022-08-19T01:46:45;100991.44;;;22.56;69.30
16580;BME280;8402;51.466;6.806;2022-08-19T01:49:15;100994.59;;;22.54;69.46
16580;BME280;8402;51.466;6.806;2022-08-19T01:51:43;100987.09;;;22.51;69.58
16580;BME280;8402;51.466;6.806;2022-08-19T01:54:14;100985.88;;;22.48;69.54
16580;BME280;8402;51.466;6.806;2022-08-19T01:57:00;100989.44;;;22.45;69.41
16580;BME280;8402;51.466;6.806;2022-08-19T01:59:30;100984.31;;;22.44;69.82
16580;BME280;8402;51.466;6.806;2022-08-19T02:01:58;100992.16;;;22.42;69.84
16580;BME280;8402;51.466;6.806;2022-08-19T02:04:26;100984.66;;;22.39;69.91
16580;BME280;8402;51.466;6.806;2022-08-19T02:06:54;100991.38;;;22.38;69.87
16580;BME280;8402;51.466;6.806;2022-08-19T02:09:23;100990.59;;;22.37;69.93
16580;BME280;8402;51.466;6.806;2022-08-19T02:11:51;100990.56;;;22.34;70.03
16580;BME280;8402;51.466;6.806;2022-08-19T02:14:19;100991.34;;;22.31;70.28
16580;BME280;8402;51.466;6.806;2022-08-19T02:16:47;100988.16;;;22.29;70.36
16580;BME280;8402;51.466;6.806;2022-08-19T02:19:16;100981.03;;;22.24;70.56
16580;BME280;8402;51.466;6.806;2022-08-19T02:21:44;100982.22;;;22.23;70.34
16580;BME280;8402;51.466;6.806;2022-08-19T02:24:12;100981.81;;;22.21;70.48
16580;BME280;8402;51.466;6.806;2022-08-19T02:26:41;100986.53;;;22.20;70.62
16580;BME280;8402;51.466;6.806;2022-08-19T02:29:11;100979.44;;;22.19;70.75
16580;BME280;8402;51.466;6.806;2022-08-19T02:31:39;100990.09;;;22.17;70.85
16580;BME280;8402;51.466;6.806;2022-08-19T02:34:07;100990.47;;;22.16;70.68
16580;BME280;8402;51.466;6.806;2022-08-19T02:36:35;101004.66;;;22.14;71.15
16580;BME280;8402;51.466;6.806;2022-08-19T02:39:08;101012.56;;;22.12;70.99
16580;BME280;8402;51.466;6.806;2022-08-19T02:41:35;101010.19;;;22.11;70.86
16580;BME280;8402;51.466;6.806;2022-08-19T02:44:04;101003.47;;;22.08;70.89
16580;BME280;8402;51.466;6.806;2022-08-19T02:46:52;101005.38;;;22.04;71.02
16580;BME280;8402;51.466;6.806;2022-08-19T02:49:22;100999.84;;;22.04;71.16
16580;BME280;8402;51.466;6.806;2022-08-19T02:51:50;100996.69;;;22.02;71.18
16580;BME280;8402;51.466;6.806;2022-08-19T02:54:18;100999.03;;;22.00;71.06
16580;BME280;8402;51.466;6.806;2022-08-19T02:56:46;101000.22;;;21.99;70.93
16580;BME280;8402;51.466;6.806;2022-08-19T02:59:15;101002.19;;;21.98;71.25
16580;BME280;8402;51.466;6.806;2022-08-19T03:01:46;101003.75;;;21.96;71.36
16580;BME280;8402;51.466;6.806;2022-08-19T03:04:15;101008.09;;;21.93;71.30
16580;BME280;8402;51.466;6.806;2022-08-19T03:06:45;101004.50;;;21.93;71.47
16580;BME280;8402;51.466;6.806;2022-08-19T03:09:14;101001.34;;;21.91;71.23
16580;BME280;8402;51.466;6.806;2022-08-19T03:11:42;101004.09;;;21.91;71.40
16580;BME280;8402;51.466;6.806;2022-08-19T03:14:10;101009.22;;;21.89;71.59
16580;BME280;8402;51.466;6.806;2022-08-19T03:16:43;101002.50;;;21.86;71.62
16580;BME280;8402;51.466;6.806;2022-08-19T03:19:12;101002.88;;;21.85;71.50
16580;BME280;8402;51.466;6.806;2022-08-19T03:21:40;100992.59;;;21.82;71.53
16580;BME280;8402;51.466;6.806;2022-08-19T03:24:11;100990.25;;;21.80;71.78
16580;BME280;8402;51.466;6.806;2022-08-19T03:26:40;100991.00;;;21.77;71.74
16580;BME280;8402;51.466;6.806;2022-08-19T03:29:11;100986.25;;;21.74;71.73
16580;BME280;8402;51.466;6.806;2022-08-19T03:31:42;100991.72;;;21.70;71.72
16580;BME280;8402;51.466;6.806;2022-08-19T03:34:20;100989.34;;;21.65;71.70
16580;BME280;8402;51.466;6.806;2022-08-19T03:36:50;100992.44;;;21.60;71.75
16580;BME280;8402;51.466;6.806;2022-08-19T03:39:18;101001.09;;;21.55;72.02
16580;BME280;8402;51.466;6.806;2022-08-19T03:41:47;100998.66;;;21.50;72.42
16580;BME280;8402;51.466;6.806;2022-08-19T03:44:36;100999.03;;;21.45;72.56
16580;BME280;8402;51.466;6.806;2022-08-19T03:47:06;100994.25;;;21.42;72.55
16580;BME280;8402;51.466;6.806;2022-08-19T03:49:34;101002.91;;;21.37;72.67
16580;BME280;8402;51.466;6.806;2022-08-19T03:52:03;100990.66;;;21.34;72.85
16580;BME280;8402;51.466;6.806;2022-08-19T03:54:34;100993.81;;;21.33;73.14
16580;BME280;8402;51.466;6.806;2022-08-19T03:57:04;100993.81;;;21.33;72.92
16580;BME280;8402;51.466;6.806;2022-08-19T03:59:35;100989.88;;;21.34;73.13
16580;BME280;8402;51.466;6.806;2022-08-19T04:02:08;100996.97;;;21.35;73.05
16580;BME280;8402;51.466;6.806;2022-08-19T04:04:38;100993.03;;;21.36;73.00
16580;BME280;8402;51.466;6.806;2022-08-19T04:07:07;100993.03;;;21.36;72.74
16580;BME280;8402;51.466;6.806;2022-08-19T04:09:35;100995.38;;;21.34;73.06
16580;BME280;8402;51.466;6.806;2022-08-19T04:12:05;100995.38;;;21.34;72.95
16580;BME280;8402;51.466;6.806;2022-08-19T04:14:34;100994.59;;;21.33;73.01
16580;BME280;8402;51.466;6.806;2022-08-19T04:17:03;100993.81;;;21.33;73.14
16580;BME280;8402;51.466;6.806;2022-08-19T04:19:34;100992.22;;;21.32;73.00
16580;BME280;8402;51.466;6.806;2022-08-19T04:22:03;100990.63;;;21.31;72.96
16580;BME280;8402;51.466;6.806;2022-08-19T04:24:31;100990.63;;;21.31;72.95
16580;BME280;8402;51.466;6.806;2022-08-19T04:27:00;100993.78;;;21.29;73.03
16580;BME280;8402;51.466;6.806;2022-08-19T04:29:29;100994.13;;;21.28;72.96
16580;BME280;8402;51.466;6.806;2022-08-19T04:31:58;100992.13;;;21.25;73.01
16580;BME280;8402;51.466;6.806;2022-08-19T04:34:36;100985.75;;;21.21;73.25
16580;BME280;8402;51.466;6.806;2022-08-19T04:37:25;100987.28;;;21.14;73.07
16580;BME280;8402;51.466;6.806;2022-08-19T04:40:01;100984.88;;;21.09;73.20
16580;BME280;8402;51.466;6.806;2022-08-19T04:42:46;100991.16;;;21.06;73.59
16580;BME280;8402;51.466;6.806;2022-08-19T04:45:14;100993.88;;;21.03;73.70
16580;BME280;8402;51.466;6.806;2022-08-19T04:47:43;101002.13;;;20.99;73.72
16580;BME280;8402;51.466;6.806;2022-08-19T04:50:26;101005.63;;;20.96;73.81
16580;BME280;8402;51.466;6.806;2022-08-19T04:52:54;101013.88;;;20.93;73.71
16580;BME280;8402;51.466;6.806;2022-08-19T04:55:23;101026.44;;;20.90;74.09
16580;BME280;8402;51.466;6.806;2022-08-19T04:57:52;101016.97;;;20.87;74.33
16580;BME280;8402;51.466;6.806;2022-08-19T05:00:20;101019.69;;;20.84;74.41
16580;BME280;8402;51.466;6.806;2022-08-19T05:02:48;101016.53;;;20.82;74.58
16580;BME280;8402;51.466;6.806;2022-08-19T05:05:16;101026.38;;;20.83;74.86
16580;BME280;8402;51.466;6.806;2022-08-19T05:07:46;101029.53;;;20.85;74.65
16580;BME280;8402;51.466;6.806;2022-08-19T05:10:14;101035.06;;;20.85;74.71
16580;BME280;8402;51.466;6.806;2022-08-19T05:12:42;101039.00;;;20.84;74.87
16580;BME280;8402;51.466;6.806;2022-08-19T05:15:10;101045.28;;;20.84;74.62
16580;BME280;8402;51.466;6.806;2022-08-19T05:17:38;101038.25;;;20.87;75.16
16580;BME280;8402;51.466;6.806;2022-08-19T05:20:27;101039.06;;;20.91;75.25
16580;BME280;8402;51.466;6.806;2022-08-19T05:23:14;101046.22;;;20.96;75.36
16580;BME280;8402;51.466;6.806;2022-08-19T05:25:48;101052.94;;;20.98;75.12
16580;BME280;8402;51.466;6.806;2022-08-19T05:28:16;101051.41;;;21.01;75.35
16580;BME280;8402;51.466;6.806;2022-08-19T05:30:44;101051.03;;;21.02;75.58
16580;BME280;8402;51.466;6.806;2022-08-19T05:33:13;101053.41;;;21.04;75.59
16580;BME280;8402;51.466;6.806;2022-08-19T05:35:41;101053.44;;;21.07;75.88
16580;BME280;8402;51.466;6.806;2022-08-19T05:38:10;101050.34;;;21.12;75.84
16580;BME280;8402;51.466;6.806;2022-08-19T05:40:40;101049.59;;;21.15;76.06
16580;BME280;8402;51.466;6.806;2022-08-19T05:43:08;101046.47;;;21.17;75.81
16580;BME280;8402;51.466;6.806;2022-08-19T05:45:39;101045.69;;;21.20;76.03
16580;BME280;8402;51.466;6.806;2022-08-19T05:48:08;101047.28;;;21.21;76.21
16580;BME280;8402;51.466;6.806;2022-08-19T05:50:38;101055.94;;;21.20;76.51
16580;BME280;8402;51.466;6.806;2022-08-19T05:53:07;101047.97;;;21.14;77.20
16580;BME280;8402;51.466;6.806;2022-08-19T05:55:36;101056.63;;;21.09;77.70
16580;BME280;8402;51.466;6.806;2022-08-19T05:58:07;101058.94;;;21.07;78.48
16580;BME280;8402;51.466;6.806;2022-08-19T06:00:36;101063.25;;;21.01;79.74
16580;BME280;8402;51.466;6.806;2022-08-19T06:03:04;101062.81;;;20.99;80.18
16580;BME280;8402;51.466;6.806;2022-08-19T06:05:39;101047.41;;;20.95;81.04
16580;BME280;8402;51.466;6.806;2022-08-19T06:08:18;101049.38;;;20.94;80.93
16580;BME280;8402;51.466;6.806;2022-08-19T06:11:12;101054.88;;;20.94;81.04
16580;BME280;8402;51.466;6.806;2022-08-19T06:13:41;101043.09;;;20.97;81.41
16580;BME280;8402;51.466;6.806;2022-08-19T06:16:09;101055.69;;;20.98;81.59
16580;BME280;8402;51.466;6.806;2022-08-19T06:18:37;101049.84;;;21.03;81.65
16580;BME280;8402;51.466;6.806;2022-08-19T06:21:05;101042.41;;;21.07;81.54
16580;BME280;8402;51.466;6.806;2022-08-19T06:23:33;101049.59;;;21.15;81.81
16580;BME280;8402;51.466;6.806;2022-08-19T06:26:01;101048.50;;;21.24;81.50
16580;BME280;8402;51.466;6.806;2022-08-19T06:28:29;101044.31;;;21.37;81.57
16580;BME280;8402;51.466;6.806;2022-08-19T06:30:58;101046.78;;;21.49;81.27
16580;BME280;8402;51.466;6.806;2022-08-19T06:33:28;101055.63;;;21.65;80.95
16580;BME280;8402;51.466;6.806;2022-08-19T06:35:57;101053.34;;;21.78;81.33
16580;BME280;8402;51.466;6.806;2022-08-19T06:38:25;101043.19;;;21.93;80.68
16580;BME280;8402;51.466;6.806;2022-08-19T06:41:00;101035.84;;;22.11;80.46
16580;BME280;8402;51.466;6.806;2022-08-19T06:43:33;101038.78;;;22.40;80.23
16580;BME280;8402;51.466;6.806;2022-08-19T06:46:12;101036.53;;;22.70;79.62
16580;BME280;8402;51.466;6.806;2022-08-19T06:48:40;101044.56;;;22.97;78.92
16580;BME280;8402;51.466;6.806;2022-08-19T06:51:12;101046.97;;;23.20;78.32
16580;BME280;8402;51.466;6.806;2022-08-19T06:53:45;101052.94;;;23.40;77.96
16580;BME280;8402;51.466;6.806;2022-08-19T06:56:15;101048.22;;;23.51;77.13
16580;BME280;8402;51.466;6.806;2022-08-19T06:58:43;101037.56;;;23.64;76.86
16580;BME280;8402;51.466;6.806;2022-08-19T07:01:14;101048.63;;;23.64;76.16
16580;BME280;8402;51.466;6.806;2022-08-19T07:03:42;101048.63;;;23.53;76.11
16580;BME280;8402;51.466;6.806;2022-08-19T07:06:12;101058.88;;;23.49;76.12
16580;BME280;8402;51.466;6.806;2022-08-19T07:09:02;101062.06;;;23.51;76.54
16580;BME280;8402;51.466;6.806;2022-08-19T07:11:31;101063.22;;;23.50;76.36
16580;BME280;8402;51.466;6.806;2022-08-19T07:13:59;101073.97;;;23.62;76.09
16580;BME280;8402;51.466;6.806;2022-08-19T07:16:30;101055.38;;;23.87;76.35
16580;BME280;8402;51.466;6.806;2022-08-19T07:18:58;101050.97;;;24.04;75.66
16580;BME280;8402;51.466;6.806;2022-08-19T07:21:42;101051.72;;;24.26;75.33
16580;BME280;8402;51.466;6.806;2022-08-19T07:24:10;101066.34;;;24.52;75.04
16580;BME280;8402;51.466;6.806;2022-08-19T07:26:40;101063.50;;;24.73;74.28
16580;BME280;8402;51.466;6.806;2022-08-19T07:29:10;101073.72;;;24.90;73.88
16580;BME280;8402;51.466;6.806;2022-08-19T07:31:40;101075.22;;;25.13;73.11
16580;BME280;8402;51.466;6.806;2022-08-19T07:34:10;101071.16;;;25.28;72.22
16580;BME280;8402;51.466;6.806;2022-08-19T07:36:41;101079.69;;;25.55;71.92
16580;BME280;8402;51.466;6.806;2022-08-19T07:39:12;101076.38;;;25.78;70.88
16580;BME280;8402;51.466;6.806;2022-08-19T07:41:41;101081.00;;;25.92;69.61
16580;BME280;8402;51.466;6.806;2022-08-19T07:44:10;101081.84;;;25.89;69.18
16580;BME280;8402;51.466;6.806;2022-08-19T07:46:43;101084.13;;;26.01;69.72
16580;BME280;8402;51.466;6.806;2022-08-19T07:49:16;101079.88;;;26.27;69.78
16580;BME280;8402;51.466;6.806;2022-08-19T07:51:47;101098.88;;;26.39;67.86
16580;BME280;8402;51.466;6.806;2022-08-19T07:54:15;101098.66;;;26.57;67.89
16580;BME280;8402;51.466;6.806;2022-08-19T07:56:44;101101.50;;;26.87;67.59
16580;BME280;8402;51.466;6.806;2022-08-19T07:59:12;101104.38;;;27.11;65.98
16580;BME280;8402;51.466;6.806;2022-08-19T08:01:43;101105.72;;;27.30;65.54
16580;BME280;8402;51.466;6.806;2022-08-19T08:04:11;101110.22;;;27.47;64.86
16580;BME280;8402;51.466;6.806;2022-08-19T08:06:56;101113.03;;;27.47;64.18
16580;BME280;8402;51.466;6.806;2022-08-19T08:09:43;101121.59;;;27.33;64.08
16580;BME280;8402;51.466;6.806;2022-08-19T08:12:17;101124.91;;;27.24;64.47
16580;BME280;8402;51.466;6.806;2022-08-19T08:15:00;101117.44;;;27.18;64.09
16580;BME280;8402;51.466;6.806;2022-08-19T08:17:35;101123.91;;;27.38;63.85
16580;BME280;8402;51.466;6.806;2022-08-19T08:20:17;101109.94;;;27.68;63.52
16580;BME280;8402;51.466;6.806;2022-08-19T08:22:46;101114.69;;;27.95;62.70
16580;BME280;8402;51.466;6.806;2022-08-19T08:25:34;101114.53;;;28.25;62.97
16580;BME280;8402;51.466;6.806;2022-08-19T08:28:03;101118.75;;;28.57;61.23
16580;BME280;8402;51.466;6.806;2022-08-19T08:30:32;101121.31;;;28.48;60.25
16580;BME280;8402;51.466;6.806;2022-08-19T08:33:03;101119.66;;;28.31;59.10
16580;BME280;8402;51.466;6.806;2022-08-19T08:35:32;101124.50;;;28.03;58.55
16580;BME280;8402;51.466;6.806;2022-08-19T08:38:01;101131.16;;;27.86;59.08
16580;BME280;8402;51.466;6.806;2022-08-19T08:40:39;101125.44;;;27.69;58.67
16580;BME280;8402;51.466;6.806;2022-08-19T08:43:18;101133.53;;;27.60;59.07
16580;BME280;8402;51.466;6.806;2022-08-19T08:45:53;101131.81;;;27.70;59.33
16580;BME280;8402;51.466;6.806;2022-08-19T08:48:34;101127.88;;;27.91;59.39
16580;BME280;8402;51.466;6.806;2022-08-19T08:51:05;101129.88;;;28.14;59.01
16580;BME280;8402;51.466;6.806;2022-08-19T08:53:36;101115.22;;;28.33;58.16
16580;BME280;8402;51.466;6.806;2022-08-19T08:56:09;101122.19;;;28.45;58.15
16580;BME280;8402;51.466;6.806;2022-08-19T08:58:47;101124.19;;;28.64;56.92
16580;BME280;8402;51.466;6.806;2022-08-19T09:01:20;101116.69;;;28.81;56.89
16580;BME280;8402;51.466;6.806;2022-08-19T09:03:50;101115.47;;;29.02;56.71
16580;BME280;8402;51.466;6.806;2022-08-19T09:06:23;101116.47;;;29.28;54.39
16580;BME280;8402;51.466;6.806;2022-08-19T09:08:58;101118.16;;;29.25;53.39
16580;BME280;8402;51.466;6.806;2022-08-19T09:11:48;101125.81;;;29.21;52.22
16580;BME280;8402;51.466;6.806;2022-08-19T09:17:18;101110.81;;;29.31;53.74
16580;BME280;8402;51.466;6.806;2022-08-19T09:19:51;101111.84;;;29.21;52.81
16580;BME280;8402;51.466;6.806;2022-08-19T09:22:20;101113.94;;;29.17;53.05
16580;BME280;8402;51.466;6.806;2022-08-19T09:24:52;101118.63;;;29.04;52.98
16580;BME280;8402;51.466;6.806;2022-08-19T09:27:20;101110.53;;;29.10;52.98
16580;BME280;8402;51.466;6.806;2022-08-19T09:30:13;101108.22;;;29.41;52.64
16580;BME280;8402;51.466;6.806;2022-08-19T09:32:42;101116.91;;;29.63;52.87
16580;BME280;8402;51.466;6.806;2022-08-19T09:35:12;101106.53;;;29.79;52.69
16580;BME280;8402;51.466;6.806;2022-08-19T09:37:41;101116.13;;;29.78;52.28
16580;BME280;8402;51.466;6.806;2022-08-19T09:40:13;101107.91;;;29.71;51.83
16580;BME280;8402;51.466;6.806;2022-08-19T09:42:41;101107.72;;;29.62;52.79
16580;BME280;8402;51.466;6.806;2022-08-19T09:45:19;101108.09;;;29.80;53.32
16580;BME280;8402;51.466;6.806;2022-08-19T09:47:50;101107.19;;;29.83;52.50
16580;BME280;8402;51.466;6.806;2022-08-19T09:50:22;101107.00;;;30.07;53.14
16580;BME280;8402;51.466;6.806;2022-08-19T09:52:51;101106.66;;;30.21;52.34
16580;BME280;8402;51.466;6.806;2022-08-19T09:55:25;101107.88;;;30.20;51.58
16580;BME280;8402;51.466;6.806;2022-08-19T09:57:56;101110.66;;;30.36;51.99
16580;BME280;8402;51.466;6.806;2022-08-19T10:00:24;101117.84;;;30.37;51.37
16580;BME280;8402;51.466;6.806;2022-08-19T10:02:53;101119.41;;;30.38;51.60
16580;BME280;8402;51.466;6.806;2022-08-19T10:05:23;101115.56;;;30.32;51.00
16580;BME280;8402;51.466;6.806;2022-08-19T10:08:08;101108.66;;;30.21;50.67
16580;BME280;8402;51.466;6.806;2022-08-19T10:10:39;101114.53;;;30.26;51.07
16580;BME280;8402;51.466;6.806;2022-08-19T10:13:13;101114.72;;;30.48;51.82
16580;BME280;8402;51.466;6.806;2022-08-19T10:15:41;101096.88;;;30.71;50.75
16580;BME280;8402;51.466;6.806;2022-08-19T10:18:13;101107.13;;;30.90;50.37
16580;BME280;8402;51.466;6.806;2022-08-19T10:20:44;101114.34;;;31.04;49.91
16580;BME280;8402;51.466;6.806;2022-08-19T10:23:17;101101.22;;;31.14;49.37
16580;BME280;8402;51.466;6.806;2022-08-19T10:25:45;101095.84;;;31.19;47.29
16580;BME280;8402;51.466;6.806;2022-08-19T10:28:14;101090.69;;;31.18;48.43
16580;BME280;8402;51.466;6.806;2022-08-19T10:30:46;101091.50;;;31.31;48.44
16580;BME280;8402;51.466;6.806;2022-08-19T10:33:14;101085.91;;;31.44;48.01
16580;BME280;8402;51.466;6.806;2022-08-19T10:36:06;101092.63;;;31.46;47.07
16580;BME280;8402;51.466;6.806;2022-08-19T10:38:34;101085.31;;;31.11;46.90
16580;BME280;8402;51.466;6.806;2022-08-19T10:41:08;101087.97;;;31.14;48.27
16580;BME280;8402;51.466;6.806;2022-08-19T10:43:36;101079.97;;;31.29;47.54
16580;BME280;8402;51.466;6.806;2022-08-19T10:46:06;101078.94;;;31.48;47.41
16580;BME280;8402;51.466;6.806;2022-08-19T10:48:39;101079.16;;;31.54;46.36
16580;BME280;8402;51.466;6.806;2022-08-19T10:51:09;101079.84;;;31.45;45.31
16580;BME280;8402;51.466;6.806;2022-08-19T10:53:56;101084.63;;;31.58;46.17
16580;BME280;8402;51.466;6.806;2022-08-19T10:56:25;101097.84;;;31.70;45.74
16580;BME280;8402;51.466;6.806;2022-08-19T10:59:11;101087.31;;;31.74;45.56
16580;BME280;8402;51.466;6.806;2022-08-19T11:01:42;101077.16;;;32.02;45.54
16580;BME280;8402;51.466;6.806;2022-08-19T11:04:11;101080.56;;;32.19;45.11
16580;BME280;8402;51.466;6.806;2022-08-19T11:06:41;101076.50;;;32.54;44.74
16580;BME280;8402;51.466;6.806;2022-08-19T11:09:10;101083.81;;;32.74;44.09
16580;BME280;8402;51.466;6.806;2022-08-19T11:11:39;101074.41;;;32.68;42.06
16580;BME280;8402;51.466;6.806;2022-08-19T11:14:09;101073.75;;;32.64;43.01
16580;BME280;8402;51.466;6.806;2022-08-19T11:16:37;101083.41;;;32.63;43.47
16580;BME280;8402;51.466;6.806;2022-08-19T11:19:07;101086.28;;;32.72;42.89
16580;BME280;8402;51.466;6.806;2022-08-19T11:21:37;101080.81;;;32.68;42.37
16580;BME280;8402;51.466;6.806;2022-08-19T11:24:10;101081.47;;;32.72;41.55
16580;BME280;8402;51.466;6.806;2022-08-19T11:26:40;101089.47;;;32.83;42.08
16580;BME280;8402;51.466;6.806;2022-08-19T11:29:09;101082.56;;;32.97;42.50
16580;BME280;8402;51.466;6.806;2022-08-19T11:31:40;101080.84;;;32.99;42.10
16580;BME280;8402;51.466;6.806;2022-08-19T11:34:11;101085.09;;;33.04;41.15
16580;BME280;8402;51.466;6.806;2022-08-19T11:36:41;101078.03;;;32.99;41.20
16580;BME280;8402;51.466;6.806;2022-08-19T11:39:13;101077.91;;;32.81;40.46
16580;BME280;8402;51.466;6.806;2022-08-19T11:41:42;101082.88;;;32.77;41.57
16580;BME280;8402;51.466;6.806;2022-08-19T11:44:10;101080.16;;;32.86;41.78
16580;BME280;8402;51.466;6.806;2022-08-19T11:46:42;101076.97;;;33.06;40.77
16580;BME280;8402;51.466;6.806;2022-08-19T11:49:13;101065.31;;;33.17;41.03
16580;BME280;8402;51.466;6.806;2022-08-19T11:51:42;101064.38;;;33.20;40.77
16580;BME280;8402;51.466;6.806;2022-08-19T11:54:14;101066.03;;;33.39;40.70
16580;BME280;8402;51.466;6.806;2022-08-19T11:56:43;101062.03;;;33.58;40.59
16580;BME280;8402;51.466;6.806;2022-08-19T11:59:12;101058.25;;;33.52;39.97
16580;BME280;8402;51.466;6.806;2022-08-19T12:01:40;101065.69;;;33.37;40.44
16580;BME280;8402;51.466;6.806;2022-08-19T12:04:09;101064.97;;;33.46;40.09
16580;BME280;8402;51.466;6.806;2022-08-19T12:06:40;101062.84;;;33.28;39.89
16580;BME280;8402;51.466;6.806;2022-08-19T12:09:09;101060.06;;;33.37;40.46
16580;BME280;8402;51.466;6.806;2022-08-19T12:11:39;101054.84;;;33.17;38.62
16580;BME280;8402;51.466;6.806;2022-08-19T12:14:10;101064.66;;;33.12;38.44
16580;BME280;8402;51.466;6.806;2022-08-19T12:16:44;101055.16;;;33.19;39.31
16580;BME280;8402;51.466;6.806;2022-08-19T12:19:18;101060.50;;;33.35;39.05
16580;BME280;8402;51.466;6.806;2022-08-19T12:21:48;101055.75;;;33.45;39.75
16580;BME280;8402;51.466;6.806;2022-08-19T12:24:17;101049.34;;;33.54;39.85
16580;BME280;8402;51.466;6.806;2022-08-19T12:26:52;101049.06;;;33.61;38.26
16580;BME280;8402;51.466;6.806;2022-08-19T12:29:26;101047.66;;;33.75;38.31
16580;BME280;8402;51.466;6.806;2022-08-19T12:31:55;101042.34;;;33.67;38.23
16580;BME280;8402;51.466;6.806;2022-08-19T12:34:30;101049.22;;;33.76;38.46
16580;BME280;8402;51.466;6.806;2022-08-19T12:37:01;101043.00;;;33.90;37.95
16580;BME280;8402;51.466;6.806;2022-08-19T12:39:29;101047.38;;;34.00;38.05
16580;BME280;8402;51.466;6.806;2022-08-19T12:41:59;101041.16;;;33.96;37.68
16580;BME280;8402;51.466;6.806;2022-08-19T12:44:27;101042.38;;;34.04;37.88
16580;BME280;8402;51.466;6.806;2022-08-19T12:46:59;101038.94;;;34.18;37.66
16580;BME280;8402;51.466;6.806;2022-08-19T12:49:31;101040.50;;;34.10;37.44
16580;BME280;8402;51.466;6.806;2022-08-19T12:52:20;101030.19;;;34.07;36.87
16580;BME280;8402;51.466;6.806;2022-08-19T12:54:49;101042.56;;;34.10;36.22
16580;BME280;8402;51.466;6.806;2022-08-19T12:57:21;101039.56;;;34.04;36.19
16580;BME280;8402;51.466;6.806;2022-08-19T12:59:59;101036.75;;;34.04;35.74
16580;BME280;8402;51.466;6.806;2022-08-19T13:02:30;101040.34;;;34.05;36.68
16580;BME280;8402;51.466;6.806;2022-08-19T13:05:06;101027.50;;;34.13;36.82
16580;BME280;8402;51.466;6.806;2022-08-19T13:07:35;101033.94;;;34.13;35.65
16580;BME280;8402;51.466;6.806;2022-08-19T13:10:06;101035.97;;;34.04;36.19
16580;BME280;8402;51.466;6.806;2022-08-19T13:12:36;101026.75;;;34.12;35.73
16580;BME280;8402;51.466;6.806;2022-08-19T13:15:04;101029.88;;;34.24;36.38
16580;BME280;8402;51.466;6.806;2022-08-19T13:17:37;101035.19;;;34.31;35.35
16580;BME280;8402;51.466;6.806;2022-08-19T13:20:09;101031.25;;;34.37;36.28
16580;BME280;8402;51.466;6.806;2022-08-19T13:22:37;101031.09;;;34.41;35.35
16580;BME280;8402;51.466;6.806;2022-08-19T13:25:06;101031.75;;;34.45;35.73